sensor_id;sensor_type;location;lat;lon;timestamp;P1;durP1;ratioP1;P2;durP2;ratioP2
28796;SDS011;24974;54.444;18.560;2023-02-12T06:37:56;15.52;;;8.75;;
28796;SDS011;24974;54.444;18.560;2023-02-12T06:40:27;12.57;;;7.18;;
28796;SDS011;24974;54.444;18.560;2023-02-12T06:42:58;13.88;;;8.07;;
28796;SDS011;24974;54.444;18.560;2023-02-12T06:45:29;13.77;;;7.47;;
28796;SDS011;24974;54.444;18.560;2023-02-12T06:48:00;16.25;;;8.05;;
28796;SDS011;24974;54.444;18.560;2023-02-12T06:50:31;11.38;;;7.05;;
28796;SDS011;24974;54.444;18.560;2023-02-12T06:53:02;14.38;;;7.60;;
28796;SDS011;24974;54.444;18.560;2023-02-12T06:55:33;15.88;;;7.85;;
28796;SDS011;24974;54.444;18.560;2023-02-12T06:58:04;12.45;;;7.03;;
28796;SDS011;24974;54.444;18.560;2023-02-12T07:00:35;14.13;;;7.78;;
28796;SDS011;24974;54.444;18.560;2023-02-12T07:03:06;15.98;;;7.75;;
28796;SDS011;24974;54.444;18.560;2023-02-12T07:05:39;13.30;;;6.90;;
28796;SDS011;24974;54.444;18.560;2023-02-12T07:08:10;17.65;;;8.10;;
28796;SDS011;24974;54.444;18.560;2023-02-12T07:10:41;14.10;;;7.97;;
28796;SDS011;24974;54.444;18.560;2023-02-12T07:13:12;18.17;;;7.55;;
28796;SDS011;24974;54.444;18.560;2023-02-12T07:15:43;14.57;;;8.15;;
28796;SDS011;24974;54.444;18.560;2023-02-12T07:18:14;13.85;;;8.82;;
28796;SDS011;24974;54.444;18.560;2023-02-12T07:20:45;15.50;;;9.55;;
28796;SDS011;24974;54.444;18.560;2023-02-12T07:23:15;16.55;;;9.98;;
28796;SDS011;24974;54.444;18.560;2023-02-12T07:26:00;17.73;;;10.10;;
28796;SDS011;24974;54.444;18.560;2023-02-12T07:28:35;22.20;;;10.50;;
28796;SDS011;24974;54.444;18.560;2023-02-12T07:33:40;18.02;;;8.52;;
28796;SDS011;24974;54.444;18.560;2023-02-12T07:36:13;17.27;;;8.18;;
28796;SDS011;24974;54.444;18.560;2023-02-12T07:38:46;15.23;;;6.78;;
28796;SDS011;24974;54.444;18.560;2023-02-12T07:41:18;13.65;;;7.03;;
28796;SDS011;24974;54.444;18.560;2023-02-12T07:43:56;15.88;;;7.15;;
28796;SDS011;24974;54.444;18.560;2023-02-12T07:46:29;12.02;;;6.60;;
28796;SDS011;24974;54.444;18.560;2023-02-12T07:49:03;13.82;;;6.15;;
28796;SDS011;24974;54.444;18.560;2023-02-12T07:51:36;11.27;;;5.45;;
28796;SDS011;24974;54.444;18.560;2023-02-12T07:54:07;14.48;;;6.22;;
28796;SDS011;24974;54.444;18.560;2023-02-12T07:56:40;10.88;;;5.82;;
28796;SDS011;24974;54.444;18.560;2023-02-12T07:59:13;6.45;;;4.47;;
28796;SDS011;24974;54.444;18.560;2023-02-12T08:01:47;9.02;;;5.57;;
28796;SDS011;24974;54.444;18.560;2023-02-12T08:04:20;12.27;;;5.90;;
28796;SDS011;24974;54.444;18.560;2023-02-12T08:06:53;10.02;;;5.80;;
28796;SDS011;24974;54.444;18.560;2023-02-12T08:09:26;16.25;;;6.70;;
28796;SDS011;24974;54.444;18.560;2023-02-12T08:12:00;12.77;;;6.28;;
28796;SDS011;24974;54.444;18.560;2023-02-12T08:14:31;14.15;;;7.45;;
28796;SDS011;24974;54.444;18.560;2023-02-12T08:17:02;14.60;;;7.80;;
28796;SDS011;24974;54.444;18.560;2023-02-12T08:19:33;20.77;;;9.23;;
28796;SDS011;24974;54.444;18.560;2023-02-12T08:22:04;20.90;;;9.30;;
28796;SDS011;24974;54.444;18.560;2023-02-12T08:24:35;13.32;;;9.50;;
28796;SDS011;24974;54.444;18.560;2023-02-12T08:27:06;17.80;;;10.13;;
28796;SDS011;24974;54.444;18.560;2023-02-12T08:29:37;19.92;;;10.93;;
28796;SDS011;24974;54.444;18.560;2023-02-12T08:32:08;13.57;;;7.47;;
28796;SDS011;24974;54.444;18.560;2023-02-12T08:34:43;20.55;;;10.18;;
28796;SDS011;24974;54.444;18.560;2023-02-12T08:37:14;17.20;;;10.60;;
28796;SDS011;24974;54.444;18.560;2023-02-12T08:39:44;20.35;;;10.80;;
28796;SDS011;24974;54.444;18.560;2023-02-12T08:42:15;18.88;;;10.02;;
28796;SDS011;24974;54.444;18.560;2023-02-12T08:44:46;17.08;;;10.43;;
28796;SDS011;24974;54.444;18.560;2023-02-12T08:47:17;20.05;;;10.93;;
28796;SDS011;24974;54.444;18.560;2023-02-12T08:49:48;18.65;;;10.68;;
28796;SDS011;24974;54.444;18.560;2023-02-12T08:52:19;11.68;;;6.93;;
28796;SDS011;24974;54.444;18.560;2023-02-12T08:54:50;17.70;;;10.60;;
28796;SDS011;24974;54.444;18.560;2023-02-12T08:57:21;16.23;;;9.77;;
28796;SDS011;24974;54.444;18.560;2023-02-12T08:59:52;20.60;;;9.52;;
28796;SDS011;24974;54.444;18.560;2023-02-12T09:02:23;17.20;;;8.88;;
28796;SDS011;24974;54.444;18.560;2023-02-12T09:04:53;18.20;;;9.52;;
28796;SDS011;24974;54.444;18.560;2023-02-12T09:07:24;22.00;;;10.10;;
28796;SDS011;24974;54.444;18.560;2023-02-12T09:09:55;19.08;;;10.02;;
28796;SDS011;24974;54.444;18.560;2023-02-12T09:12:26;21.02;;;10.38;;
28796;SDS011;24974;54.444;18.560;2023-02-12T09:14:57;23.27;;;10.30;;
28796;SDS011;24974;54.444;18.560;2023-02-12T09:17:29;16.20;;;9.70;;
28796;SDS011;24974;54.444;18.560;2023-02-12T09:20:00;17.00;;;10.02;;
28796;SDS011;24974;54.444;18.560;2023-02-12T09:22:31;17.50;;;10.00;;
28796;SDS011;24974;54.444;18.560;2023-02-12T09:25:03;15.20;;;10.27;;
28796;SDS011;24974;54.444;18.560;2023-02-12T09:27:35;42.95;;;25.27;;
28796;SDS011;24974;54.444;18.560;2023-02-12T09:30:06;22.15;;;10.90;;
28796;SDS011;24974;54.444;18.560;2023-02-12T09:32:38;18.15;;;9.85;;
28796;SDS011;24974;54.444;18.560;2023-02-12T09:35:08;18.73;;;9.30;;
28796;SDS011;24974;54.444;18.560;2023-02-12T09:37:42;18.42;;;9.68;;
28796;SDS011;24974;54.444;18.560;2023-02-12T09:40:21;16.73;;;9.00;;
28796;SDS011;24974;54.444;18.560;2023-02-12T09:45:54;13.80;;;8.25;;
28796;SDS011;24974;54.444;18.560;2023-02-12T09:54:14;19.08;;;9.23;;
28796;SDS011;24974;54.444;18.560;2023-02-12T09:56:48;18.95;;;9.88;;
28796;SDS011;24974;54.444;18.560;2023-02-12T09:59:34;18.13;;;10.43;;
28796;SDS011;24974;54.444;18.560;2023-02-12T10:02:16;16.80;;;9.68;;
28796;SDS011;24974;54.444;18.560;2023-02-12T10:04:49;15.80;;;9.38;;
28796;SDS011;24974;54.444;18.560;2023-02-12T10:10:35;18.60;;;10.23;;
28796;SDS011;24974;54.444;18.560;2023-02-12T10:13:20;16.63;;;9.93;;
28796;SDS011;24974;54.444;18.560;2023-02-12T10:27:34;23.45;;;9.20;;
28796;SDS011;24974;54.444;18.560;2023-02-12T10:33:16;18.40;;;9.40;;
28796;SDS011;24974;54.444;18.560;2023-02-12T10:35:55;18.25;;;9.02;;
28796;SDS011;24974;54.444;18.560;2023-02-12T10:38:34;20.17;;;9.85;;
28796;SDS011;24974;54.444;18.560;2023-02-12T10:41:09;18.05;;;9.27;;
28796;SDS011;24974;54.444;18.560;2023-02-12T10:43:42;17.33;;;9.57;;
28796;SDS011;24974;54.444;18.560;2023-02-12T10:46:14;15.90;;;9.52;;
28796;SDS011;24974;54.444;18.560;2023-02-12T10:48:47;17.20;;;10.07;;
28796;SDS011;24974;54.444;18.560;2023-02-12T10:57:05;17.58;;;9.68;;
28796;SDS011;24974;54.444;18.560;2023-02-12T10:59:41;19.65;;;9.88;;
28796;SDS011;24974;54.444;18.560;2023-02-12T11:02:26;14.65;;;8.90;;
28796;SDS011;24974;54.444;18.560;2023-02-12T11:05:14;23.67;;;9.48;;
28796;SDS011;24974;54.444;18.560;2023-02-12T11:07:52;18.42;;;9.50;;
28796;SDS011;24974;54.444;18.560;2023-02-12T11:10:27;17.52;;;9.20;;
28796;SDS011;24974;54.444;18.560;2023-02-12T11:13:03;15.52;;;10.07;;
28796;SDS011;24974;54.444;18.560;2023-02-12T11:15:36;20.50;;;10.90;;
28796;SDS011;24974;54.444;18.560;2023-02-12T11:18:31;18.83;;;10.00;;
28796;SDS011;24974;54.444;18.560;2023-02-12T11:21:04;21.98;;;10.85;;
28796;SDS011;24974;54.444;18.560;2023-02-12T11:23:40;19.75;;;10.13;;
28796;SDS011;24974;54.444;18.560;2023-02-12T11:31:30;18.67;;;9.32;;
28796;SDS011;24974;54.444;18.560;2023-02-12T11:36:43;17.13;;;9.70;;
28796;SDS011;24974;54.444;18.560;2023-02-12T11:39:26;17.98;;;10.48;;
28796;SDS011;24974;54.444;18.560;2023-02-12T11:42:39;17.27;;;10.60;;
28796;SDS011;24974;54.444;18.560;2023-02-12T11:44:56;14.85;;;8.88;;
28796;SDS011;24974;54.444;18.560;2023-02-12T11:47:30;16.08;;;9.82;;
28796;SDS011;24974;54.444;18.560;2023-02-12T11:50:08;16.80;;;8.80;;
28796;SDS011;24974;54.444;18.560;2023-02-12T11:52:52;13.90;;;8.40;;
28796;SDS011;24974;54.444;18.560;2023-02-12T11:55:31;11.82;;;7.53;;
28796;SDS011;24974;54.444;18.560;2023-02-12T12:00:57;13.88;;;8.25;;
28796;SDS011;24974;54.444;18.560;2023-02-12T12:04:13;15.52;;;8.52;;
28796;SDS011;24974;54.444;18.560;2023-02-12T12:06:48;15.77;;;9.13;;
28796;SDS011;24974;54.444;18.560;2023-02-12T12:14:48;23.48;;;11.48;;
28796;SDS011;24974;54.444;18.560;2023-02-12T12:17:52;18.15;;;10.35;;
28796;SDS011;24974;54.444;18.560;2023-02-12T12:20:57;17.73;;;9.68;;
28796;SDS011;24974;54.444;18.560;2023-02-12T12:23:39;19.48;;;10.48;;
28796;SDS011;24974;54.444;18.560;2023-02-12T12:26:19;21.13;;;10.77;;
28796;SDS011;24974;54.444;18.560;2023-02-12T12:29:02;22.67;;;9.77;;
28796;SDS011;24974;54.444;18.560;2023-02-12T12:31:37;58.08;;;31.45;;
28796;SDS011;24974;54.444;18.560;2023-02-12T12:34:13;19.83;;;10.18;;
28796;SDS011;24974;54.444;18.560;2023-02-12T12:36:50;19.42;;;11.07;;
28796;SDS011;24974;54.444;18.560;2023-02-12T12:39:31;24.60;;;11.02;;
28796;SDS011;24974;54.444;18.560;2023-02-12T12:42:43;20.27;;;10.48;;
28796;SDS011;24974;54.444;18.560;2023-02-12T12:57:02;18.75;;;11.48;;
28796;SDS011;24974;54.444;18.560;2023-02-12T13:11:19;19.27;;;10.90;;
28796;SDS011;24974;54.444;18.560;2023-02-12T13:13:53;21.77;;;10.40;;
28796;SDS011;24974;54.444;18.560;2023-02-12T13:16:45;18.25;;;10.40;;
28796;SDS011;24974;54.444;18.560;2023-02-12T13:19:31;18.80;;;9.98;;
28796;SDS011;24974;54.444;18.560;2023-02-12T16:11:47;12.57;;;8.75;;
28796;SDS011;24974;54.444;18.560;2023-02-12T16:14:21;10.43;;;7.75;;
28796;SDS011;24974;54.444;18.560;2023-02-12T16:17:44;14.32;;;7.93;;
28796;SDS011;24974;54.444;18.560;2023-02-12T16:22:45;11.20;;;7.43;;
28796;SDS011;24974;54.444;18.560;2023-02-12T16:25:20;8.80;;;6.65;;
28796;SDS011;24974;54.444;18.560;2023-02-12T16:28:03;7.53;;;6.72;;
28796;SDS011;24974;54.444;18.560;2023-02-12T16:36:05;8.75;;;5.95;;
28796;SDS011;24974;54.444;18.560;2023-02-12T16:44:29;7.32;;;5.75;;
28796;SDS011;24974;54.444;18.560;2023-02-12T16:46:45;9.48;;;6.78;;
28796;SDS011;24974;54.444;18.560;2023-02-12T16:49:19;8.07;;;7.05;;
28796;SDS011;24974;54.444;18.560;2023-02-12T16:51:52;9.85;;;7.68;;
28796;SDS011;24974;54.444;18.560;2023-02-12T16:54:43;7.97;;;6.53;;
28796;SDS011;24974;54.444;18.560;2023-02-12T16:57:13;7.40;;;6.47;;
28796;SDS011;24974;54.444;18.560;2023-02-12T16:59:44;10.07;;;7.03;;
28796;SDS011;24974;54.444;18.560;2023-02-12T17:02:15;10.95;;;7.72;;
28796;SDS011;24974;54.444;18.560;2023-02-12T17:04:45;10.23;;;6.97;;
28796;SDS011;24974;54.444;18.560;2023-02-12T17:07:18;9.50;;;7.60;;
28796;SDS011;24974;54.444;18.560;2023-02-12T17:09:51;10.60;;;8.38;;
28796;SDS011;24974;54.444;18.560;2023-02-12T17:12:21;10.02;;;7.65;;
28796;SDS011;24974;54.444;18.560;2023-02-12T17:14:52;9.13;;;7.70;;
28796;SDS011;24974;54.444;18.560;2023-02-12T17:17:25;11.55;;;7.93;;
28796;SDS011;24974;54.444;18.560;2023-02-12T17:19:55;12.23;;;8.55;;
28796;SDS011;24974;54.444;18.560;2023-02-12T17:22:26;15.18;;;8.40;;
28796;SDS011;24974;54.444;18.560;2023-02-12T17:24:57;13.65;;;8.60;;
28796;SDS011;24974;54.444;18.560;2023-02-12T17:27:28;11.98;;;8.93;;
28796;SDS011;24974;54.444;18.560;2023-02-12T17:29:59;15.38;;;9.40;;
28796;SDS011;24974;54.444;18.560;2023-02-12T17:32:29;13.88;;;9.48;;
28796;SDS011;24974;54.444;18.560;2023-02-12T17:35:00;13.52;;;9.38;;
28796;SDS011;24974;54.444;18.560;2023-02-12T17:37:31;12.20;;;9.10;;
28796;SDS011;24974;54.444;18.560;2023-02-12T17:40:02;14.93;;;9.63;;
28796;SDS011;24974;54.444;18.560;2023-02-12T17:42:34;13.88;;;9.00;;
28796;SDS011;24974;54.444;18.560;2023-02-12T17:45:04;15.52;;;9.93;;
28796;SDS011;24974;54.444;18.560;2023-02-12T17:47:36;12.73;;;9.23;;
28796;SDS011;24974;54.444;18.560;2023-02-12T17:50:09;15.02;;;10.30;;
28796;SDS011;24974;54.444;18.560;2023-02-12T17:52:42;12.77;;;9.65;;
28796;SDS011;24974;54.444;18.560;2023-02-12T17:55:12;12.73;;;9.52;;
28796;SDS011;24974;54.444;18.560;2023-02-12T17:57:44;17.17;;;11.20;;
28796;SDS011;24974;54.444;18.560;2023-02-12T18:00:15;19.88;;;11.40;;
28796;SDS011;24974;54.444;18.560;2023-02-12T18:02:46;17.02;;;11.55;;
28796;SDS011;24974;54.444;18.560;2023-02-12T18:05:17;12.88;;;10.13;;
28796;SDS011;24974;54.444;18.560;2023-02-12T18:07:48;12.82;;;10.70;;
28796;SDS011;24974;54.444;18.560;2023-02-12T18:10:19;14.90;;;10.95;;
28796;SDS011;24974;54.444;18.560;2023-02-12T18:12:50;16.02;;;10.32;;
28796;SDS011;24974;54.444;18.560;2023-02-12T18:15:21;13.98;;;10.50;;
28796;SDS011;24974;54.444;18.560;2023-02-12T18:17:51;13.02;;;10.15;;
28796;SDS011;24974;54.444;18.560;2023-02-12T18:20:22;14.48;;;10.18;;
28796;SDS011;24974;54.444;18.560;2023-02-12T18:22:53;12.10;;;9.27;;
28796;SDS011;24974;54.444;18.560;2023-02-12T18:25:24;14.00;;;10.07;;
28796;SDS011;24974;54.444;18.560;2023-02-12T18:27:55;16.17;;;9.55;;
28796;SDS011;24974;54.444;18.560;2023-02-12T18:30:26;15.23;;;9.90;;
28796;SDS011;24974;54.444;18.560;2023-02-12T18:32:57;15.18;;;9.77;;
28796;SDS011;24974;54.444;18.560;2023-02-12T18:35:28;14.57;;;9.32;;
28796;SDS011;24974;54.444;18.560;2023-02-12T18:37:59;11.70;;;8.90;;
28796;SDS011;24974;54.444;18.560;2023-02-12T18:40:30;13.30;;;9.10;;
28796;SDS011;24974;54.444;18.560;2023-02-12T18:43:00;15.18;;;10.07;;
28796;SDS011;24974;54.444;18.560;2023-02-12T18:45:31;13.10;;;8.85;;
28796;SDS011;24974;54.444;18.560;2023-02-12T18:48:02;14.35;;;9.70;;
28796;SDS011;24974;54.444;18.560;2023-02-12T18:50:36;12.40;;;8.07;;
28796;SDS011;24974;54.444;18.560;2023-02-12T18:53:07;15.25;;;8.50;;
28796;SDS011;24974;54.444;18.560;2023-02-12T18:55:38;15.02;;;8.45;;
28796;SDS011;24974;54.444;18.560;2023-02-12T18:58:09;16.08;;;8.52;;
28796;SDS011;24974;54.444;18.560;2023-02-12T19:00:40;11.65;;;8.68;;
28796;SDS011;24974;54.444;18.560;2023-02-12T19:03:10;13.32;;;8.43;;
28796;SDS011;24974;54.444;18.560;2023-02-12T19:05:41;14.60;;;8.23;;
28796;SDS011;24974;54.444;18.560;2023-02-12T19:08:12;13.65;;;8.63;;
28796;SDS011;24974;54.444;18.560;2023-02-12T19:10:43;12.20;;;8.43;;
28796;SDS011;24974;54.444;18.560;2023-02-12T19:13:14;11.70;;;7.90;;
28796;SDS011;24974;54.444;18.560;2023-02-12T19:15:45;12.13;;;8.70;;
28796;SDS011;24974;54.444;18.560;2023-02-12T19:18:16;13.15;;;8.27;;
28796;SDS011;24974;54.444;18.560;2023-02-12T19:20:47;12.10;;;8.48;;
28796;SDS011;24974;54.444;18.560;2023-02-12T19:23:18;15.50;;;8.55;;
28796;SDS011;24974;54.444;18.560;2023-02-12T19:25:49;13.85;;;7.90;;
28796;SDS011;24974;54.444;18.560;2023-02-12T19:28:20;12.95;;;8.90;;
28796;SDS011;24974;54.444;18.560;2023-02-12T19:30:50;11.40;;;7.60;;
28796;SDS011;24974;54.444;18.560;2023-02-12T19:33:21;12.98;;;8.32;;
28796;SDS011;24974;54.444;18.560;2023-02-12T19:35:52;13.13;;;8.60;;
28796;SDS011;24974;54.444;18.560;2023-02-12T19:38:23;15.35;;;8.57;;
28796;SDS011;24974;54.444;18.560;2023-02-12T19:41:04;13.32;;;8.73;;
28796;SDS011;24974;54.444;18.560;2023-02-12T19:43:36;10.57;;;7.72;;
28796;SDS011;24974;54.444;18.560;2023-02-12T19:46:08;10.73;;;8.35;;
28796;SDS011;24974;54.444;18.560;2023-02-12T19:48:41;13.60;;;8.85;;
28796;SDS011;24974;54.444;18.560;2023-02-12T19:51:14;12.32;;;8.63;;
28796;SDS011;24974;54.444;18.560;2023-02-12T19:53:46;14.23;;;8.15;;
28796;SDS011;24974;54.444;18.560;2023-02-12T19:56:18;14.57;;;9.48;;
28796;SDS011;24974;54.444;18.560;2023-02-12T19:58:49;14.95;;;8.52;;
28796;SDS011;24974;54.444;18.560;2023-02-12T20:01:19;14.85;;;8.68;;
28796;SDS011;24974;54.444;18.560;2023-02-12T20:03:50;14.55;;;8.93;;
28796;SDS011;24974;54.444;18.560;2023-02-12T20:06:22;17.65;;;9.73;;
28796;SDS011;24974;54.444;18.560;2023-02-12T20:09:02;12.00;;;8.35;;
28796;SDS011;24974;54.444;18.560;2023-02-12T20:11:35;15.63;;;8.75;;
28796;SDS011;24974;54.444;18.560;2023-02-12T20:14:08;12.98;;;8.20;;
28796;SDS011;24974;54.444;18.560;2023-02-12T20:16:40;12.80;;;7.50;;
28796;SDS011;24974;54.444;18.560;2023-02-12T20:19:20;10.70;;;7.22;;
28796;SDS011;24974;54.444;18.560;2023-02-12T20:21:53;11.82;;;7.75;;
28796;SDS011;24974;54.444;18.560;2023-02-12T20:24:27;11.43;;;7.78;;
28796;SDS011;24974;54.444;18.560;2023-02-12T20:27:00;15.07;;;8.18;;
28796;SDS011;24974;54.444;18.560;2023-02-12T20:29:32;15.45;;;7.97;;
28796;SDS011;24974;54.444;18.560;2023-02-12T20:32:03;11.00;;;6.97;;
28796;SDS011;24974;54.444;18.560;2023-02-12T20:34:33;12.35;;;6.97;;
28796;SDS011;24974;54.444;18.560;2023-02-12T20:37:04;13.40;;;7.28;;
28796;SDS011;24974;54.444;18.560;2023-02-12T20:39:35;12.57;;;6.95;;
28796;SDS011;24974;54.444;18.560;2023-02-12T20:42:06;11.25;;;6.65;;
28796;SDS011;24974;54.444;18.560;2023-02-12T20:44:37;12.27;;;7.18;;
28796;SDS011;24974;54.444;18.560;2023-02-12T20:47:08;14.10;;;6.72;;
28796;SDS011;24974;54.444;18.560;2023-02-12T20:49:38;12.80;;;6.20;;
28796;SDS011;24974;54.444;18.560;2023-02-12T20:52:09;11.25;;;6.32;;
28796;SDS011;24974;54.444;18.560;2023-02-12T20:54:40;10.63;;;6.10;;
28796;SDS011;24974;54.444;18.560;2023-02-12T20:57:11;11.40;;;6.47;;
28796;SDS011;24974;54.444;18.560;2023-02-12T20:59:42;11.82;;;6.68;;
28796;SDS011;24974;54.444;18.560;2023-02-12T21:02:14;12.05;;;6.55;;
28796;SDS011;24974;54.444;18.560;2023-02-12T21:04:45;9.85;;;5.60;;
28796;SDS011;24974;54.444;18.560;2023-02-12T21:07:16;12.13;;;6.55;;
28796;SDS011;24974;54.444;18.560;2023-02-12T21:09:46;14.40;;;6.40;;
28796;SDS011;24974;54.444;18.560;2023-02-12T21:12:17;13.38;;;5.97;;
28796;SDS011;24974;54.444;18.560;2023-02-12T21:14:48;12.57;;;6.18;;
28796;SDS011;24974;54.444;18.560;2023-02-12T21:17:19;10.68;;;5.70;;
28796;SDS011;24974;54.444;18.560;2023-02-12T21:19:51;13.10;;;6.00;;
28796;SDS011;24974;54.444;18.560;2023-02-12T21:22:22;12.35;;;6.70;;
28796;SDS011;24974;54.444;18.560;2023-02-12T21:24:52;9.32;;;5.78;;
28796;SDS011;24974;54.444;18.560;2023-02-12T21:27:23;11.50;;;5.82;;
28796;SDS011;24974;54.444;18.560;2023-02-12T21:29:54;7.72;;;5.70;;
28796;SDS011;24974;54.444;18.560;2023-02-12T21:32:25;14.95;;;7.03;;
28796;SDS011;24974;54.444;18.560;2023-02-12T21:34:55;12.18;;;5.85;;
28796;SDS011;24974;54.444;18.560;2023-02-12T21:37:26;13.98;;;6.47;;
28796;SDS011;24974;54.444;18.560;2023-02-12T21:39:57;11.38;;;5.28;;
28796;SDS011;24974;54.444;18.560;2023-02-12T21:42:28;11.57;;;5.68;;
28796;SDS011;24974;54.444;18.560;2023-02-12T21:44:58;12.90;;;5.57;;
28796;SDS011;24974;54.444;18.560;2023-02-12T21:47:29;13.80;;;6.78;;
28796;SDS011;24974;54.444;18.560;2023-02-12T21:50:00;11.98;;;5.10;;
28796;SDS011;24974;54.444;18.560;2023-02-12T21:52:31;9.48;;;4.97;;
28796;SDS011;24974;54.444;18.560;2023-02-12T21:55:02;8.85;;;4.65;;
28796;SDS011;24974;54.444;18.560;2023-02-12T21:57:32;10.75;;;5.50;;
28796;SDS011;24974;54.444;18.560;2023-02-12T22:00:03;11.15;;;4.80;;
28796;SDS011;24974;54.444;18.560;2023-02-12T22:02:42;9.85;;;4.82;;
28796;SDS011;24974;54.444;18.560;2023-02-12T22:05:13;11.52;;;4.10;;
28796;SDS011;24974;54.444;18.560;2023-02-12T22:07:47;9.70;;;4.53;;
28796;SDS011;24974;54.444;18.560;2023-02-12T22:10:18;10.57;;;4.05;;
28796;SDS011;24974;54.444;18.560;2023-02-12T22:12:49;11.18;;;4.40;;
28796;SDS011;24974;54.444;18.560;2023-02-12T22:15:20;10.73;;;3.90;;
28796;SDS011;24974;54.444;18.560;2023-02-12T22:17:52;6.65;;;3.53;;
28796;SDS011;24974;54.444;18.560;2023-02-12T22:20:22;10.80;;;3.83;;
28796;SDS011;24974;54.444;18.560;2023-02-12T22:22:53;9.10;;;4.03;;
28796;SDS011;24974;54.444;18.560;2023-02-12T22:25:24;10.13;;;4.03;;
28796;SDS011;24974;54.444;18.560;2023-02-12T22:27:57;8.90;;;3.60;;
28796;SDS011;24974;54.444;18.560;2023-02-12T22:30:27;6.78;;;3.28;;
28796;SDS011;24974;54.444;18.560;2023-02-12T22:32:58;6.93;;;3.17;;
28796;SDS011;24974;54.444;18.560;2023-02-12T22:35:29;9.25;;;3.70;;
28796;SDS011;24974;54.444;18.560;2023-02-12T22:38:00;12.68;;;8.30;;
28796;SDS011;24974;54.444;18.560;2023-02-12T22:40:31;7.50;;;3.20;;
28796;SDS011;24974;54.444;18.560;2023-02-12T22:43:02;8.57;;;2.85;;
28796;SDS011;24974;54.444;18.560;2023-02-12T22:45:33;8.48;;;3.05;;
28796;SDS011;24974;54.444;18.560;2023-02-12T22:48:04;8.23;;;3.08;;
28796;SDS011;24974;54.444;18.560;2023-02-12T22:50:37;11.48;;;4.25;;
28796;SDS011;24974;54.444;18.560;2023-02-12T22:53:08;9.40;;;3.67;;
28796;SDS011;24974;54.444;18.560;2023-02-12T22:55:39;7.53;;;2.92;;
28796;SDS011;24974;54.444;18.560;2023-02-12T22:58:10;6.82;;;3.08;;
28796;SDS011;24974;54.444;18.560;2023-02-12T23:00:41;7.38;;;3.03;;
28796;SDS011;24974;54.444;18.560;2023-02-12T23:03:12;7.32;;;3.53;;
28796;SDS011;24974;54.444;18.560;2023-02-12T23:05:43;5.55;;;2.50;;
28796;SDS011;24974;54.444;18.560;2023-02-12T23:08:14;7.30;;;3.17;;
28796;SDS011;24974;54.444;18.560;2023-02-12T23:10:45;6.07;;;3.65;;
28796;SDS011;24974;54.444;18.560;2023-02-12T23:13:15;11.15;;;3.30;;
28796;SDS011;24974;54.444;18.560;2023-02-12T23:15:46;7.50;;;3.10;;
28796;SDS011;24974;54.444;18.560;2023-02-12T23:18:17;5.30;;;3.25;;
28796;SDS011;24974;54.444;18.560;2023-02-12T23:20:48;7.47;;;2.90;;
28796;SDS011;24974;54.444;18.560;2023-02-12T23:23:20;6.15;;;3.38;;
28796;SDS011;24974;54.444;18.560;2023-02-12T23:25:52;6.60;;;2.88;;
28796;SDS011;24974;54.444;18.560;2023-02-12T23:28:23;13.23;;;7.75;;
28796;SDS011;24974;54.444;18.560;2023-02-12T23:30:54;4.13;;;2.70;;
28796;SDS011;24974;54.444;18.560;2023-02-12T23:33:25;5.20;;;3.20;;
28796;SDS011;24974;54.444;18.560;2023-02-12T23:35:56;8.88;;;2.80;;
28796;SDS011;24974;54.444;18.560;2023-02-12T23:38:27;11.15;;;2.97;;
28796;SDS011;24974;54.444;18.560;2023-02-12T23:40:58;6.30;;;2.95;;
28796;SDS011;24974;54.444;18.560;2023-02-12T23:43:29;6.93;;;3.22;;
28796;SDS011;24974;54.444;18.560;2023-02-12T23:46:02;4.80;;;3.28;;
28796;SDS011;24974;54.444;18.560;2023-02-12T23:48:33;7.43;;;2.88;;
28796;SDS011;24974;54.444;18.560;2023-02-12T23:51:04;12.38;;;7.63;;
28796;SDS011;24974;54.444;18.560;2023-02-12T23:53:35;7.47;;;3.97;;
28796;SDS011;24974;54.444;18.560;2023-02-12T23:56:06;13.50;;;3.45;;
28796;SDS011;24974;54.444;18.560;2023-02-12T23:58:37;6.28;;;3.03;;
